createdAt,value
2018-11-28T00:01:26.364Z,7.50
2018-11-28T00:03:54.577Z,9.63
2018-11-28T00:06:22.781Z,8.93
2018-11-28T00:08:50.990Z,8.60
2018-11-28T00:11:19.203Z,8.53
2018-11-28T00:13:47.420Z,9.00
2018-11-28T00:16:15.613Z,9.20
2018-11-28T00:18:43.824Z,8.90
2018-11-28T00:21:12.028Z,10.93
2018-11-28T00:23:40.245Z,11.23
2018-11-28T00:26:15.115Z,11.37
2018-11-28T00:28:43.333Z,10.87
2018-11-28T00:31:11.537Z,10.53
2018-11-28T00:36:14.404Z,12.37
2018-11-28T00:38:42.609Z,10.20
2018-11-28T00:41:10.787Z,9.57
2018-11-28T00:43:38.971Z,9.70
2018-11-28T00:46:07.248Z,10.27
2018-11-28T00:48:35.440Z,9.20
2018-11-28T00:51:03.620Z,9.27
2018-11-28T00:53:31.820Z,8.60
2018-11-28T00:56:00.000Z,8.27
2018-11-28T00:58:28.191Z,8.13
2018-11-28T01:00:56.380Z,7.87
2018-11-28T01:03:24.572Z,9.73
2018-11-28T01:05:52.767Z,7.77
2018-11-28T01:08:20.971Z,8.53
2018-11-28T01:10:49.162Z,8.03
2018-11-28T01:13:17.358Z,9.00
2018-11-28T01:15:45.581Z,9.33
2018-11-28T01:18:13.792Z,9.20
2018-11-28T01:20:41.988Z,9.20
2018-11-28T01:23:10.190Z,9.77
2018-11-28T01:25:38.459Z,9.67
2018-11-28T01:28:06.659Z,9.37
2018-11-28T01:30:34.972Z,9.00
2018-11-28T01:33:03.227Z,9.20
2018-11-28T01:35:31.428Z,9.40
2018-11-28T01:37:59.635Z,10.03
2018-11-28T01:40:27.852Z,9.63
2018-11-28T01:42:56.035Z,9.30
2018-11-28T01:45:24.476Z,8.43
2018-11-28T01:47:52.680Z,8.50
2018-11-28T01:50:21.519Z,8.07
2018-11-28T01:52:49.819Z,7.43
2018-11-28T01:55:19.337Z,7.97
2018-11-28T01:57:47.604Z,6.87
2018-11-28T02:00:16.797Z,8.10
2018-11-28T02:02:45.101Z,7.60
2018-11-28T02:05:13.312Z,8.17
2018-11-28T02:07:41.500Z,7.23
2018-11-28T02:10:11.738Z,7.20
2018-11-28T02:12:40.072Z,7.00
2018-11-28T02:15:13.512Z,7.07
2018-11-28T02:17:41.759Z,7.57
2018-11-28T02:20:11.804Z,6.60
2018-11-28T02:22:40.000Z,7.13
2018-11-28T02:25:10.500Z,6.43
2018-11-28T02:27:38.682Z,6.67
2018-11-28T02:30:11.782Z,6.13
2018-11-28T02:32:39.976Z,6.47
2018-11-28T02:35:11.029Z,7.50
2018-11-28T02:37:39.300Z,6.53
2018-11-28T02:40:09.821Z,6.17
2018-11-28T02:42:38.023Z,7.60
2018-11-28T02:45:09.024Z,7.07
2018-11-28T02:47:37.229Z,7.43
2018-11-28T02:50:05.795Z,6.93
2018-11-28T02:52:34.025Z,6.63
2018-11-28T02:55:02.229Z,6.37
2018-11-28T02:57:30.428Z,7.80
2018-11-28T02:59:58.641Z,6.83
2018-11-28T03:02:26.832Z,6.10
2018-11-28T03:04:55.043Z,6.50
2018-11-28T03:07:23.243Z,5.50
2018-11-28T03:09:51.462Z,6.17
2018-11-28T03:12:19.654Z,6.90
2018-11-28T03:14:47.880Z,7.83
2018-11-28T03:17:21.596Z,6.73
2018-11-28T03:19:49.814Z,7.10
2018-11-28T03:22:18.014Z,7.07
2018-11-28T03:24:46.223Z,7.73
2018-11-28T03:27:14.415Z,6.80
2018-11-28T03:29:42.615Z,6.47
2018-11-28T03:32:10.805Z,7.53
2018-11-28T03:34:45.282Z,6.50
2018-11-28T03:37:10.721Z,6.70
2018-11-28T03:39:40.092Z,6.40
2018-11-28T03:42:08.293Z,6.90
2018-11-28T03:44:42.909Z,6.37
2018-11-28T03:47:11.100Z,6.23
2018-11-28T03:49:39.308Z,6.70
2018-11-28T03:52:07.518Z,7.10
2018-11-28T03:54:35.725Z,6.23
2018-11-28T03:57:03.923Z,6.47
2018-11-28T03:59:32.127Z,6.27
2018-11-28T04:02:00.340Z,6.80
2018-11-28T04:04:28.558Z,6.50
2018-11-28T04:06:56.754Z,6.50
2018-11-28T04:09:24.965Z,5.53
2018-11-28T04:11:53.237Z,6.30
2018-11-28T04:14:21.423Z,6.70
2018-11-28T04:16:49.640Z,6.20
2018-11-28T04:19:17.843Z,6.07
2018-11-28T04:21:46.041Z,6.07
2018-11-28T04:24:14.246Z,6.30
2018-11-28T04:26:42.480Z,5.87
2018-11-28T04:29:10.684Z,5.93
2018-11-28T04:31:38.905Z,6.10
2018-11-28T04:34:07.104Z,6.30
2018-11-28T04:36:35.297Z,6.93
2018-11-28T04:39:04.336Z,6.23
2018-11-28T04:41:32.533Z,6.70
2018-11-28T04:44:00.715Z,6.37
2018-11-28T04:46:28.907Z,6.60
2018-11-28T04:48:57.089Z,6.77
2018-11-28T04:51:25.277Z,6.30
2018-11-28T04:53:53.467Z,6.00
2018-11-28T04:56:21.668Z,6.60
2018-11-28T04:58:49.859Z,6.83
2018-11-28T05:01:18.048Z,7.23
2018-11-28T05:03:46.232Z,7.30
2018-11-28T05:06:28.719Z,6.77
2018-11-28T05:08:56.908Z,7.17
2018-11-28T05:11:25.106Z,6.97
2018-11-28T05:13:53.295Z,7.47
2018-11-28T05:16:21.487Z,7.67
2018-11-28T05:18:49.665Z,7.10
2018-11-28T05:21:17.858Z,7.37
2018-11-28T05:23:46.037Z,6.60
2018-11-28T05:26:14.220Z,7.30
2018-11-28T05:28:42.403Z,6.90
2018-11-28T05:31:10.609Z,7.17
2018-11-28T05:33:38.791Z,6.70
2018-11-28T05:36:07.017Z,7.73
2018-11-28T05:38:35.221Z,7.00
2018-11-28T05:41:03.436Z,8.33
2018-11-28T05:43:31.638Z,7.33
2018-11-28T05:45:59.857Z,7.70
2018-11-28T05:48:28.040Z,7.80
2018-11-28T05:50:56.256Z,7.30
2018-11-28T05:53:24.465Z,7.80
2018-11-28T05:55:52.705Z,6.60
2018-11-28T05:58:20.912Z,7.30
2018-11-28T06:00:49.132Z,7.53
2018-11-28T06:03:17.333Z,8.20
2018-11-28T06:05:45.549Z,7.50
2018-11-28T06:08:13.752Z,7.57
2018-11-28T06:10:41.955Z,7.90
2018-11-28T06:13:10.173Z,8.63
2018-11-28T06:15:38.364Z,8.17
2018-11-28T06:18:07.825Z,8.90
2018-11-28T06:20:36.043Z,8.97
2018-11-28T06:23:04.239Z,10.20
2018-11-28T06:25:32.465Z,9.30
2018-11-28T06:28:00.667Z,9.20
2018-11-28T06:30:28.865Z,9.60
2018-11-28T06:32:57.072Z,9.37
2018-11-28T06:35:25.276Z,9.10
2018-11-28T06:37:53.491Z,11.83
2018-11-28T06:40:24.205Z,12.93
2018-11-28T06:42:49.939Z,11.10
2018-11-28T06:45:22.143Z,10.23
2018-11-28T06:47:50.459Z,10.83
2018-11-28T06:50:19.425Z,11.97
2018-11-28T06:52:48.823Z,11.13
2018-11-28T06:55:18.116Z,12.50
2018-11-28T06:57:46.357Z,12.53
2018-11-28T07:00:17.440Z,12.13
2018-11-28T07:02:45.775Z,12.80
2018-11-28T07:05:14.040Z,12.50
2018-11-28T07:07:42.358Z,12.80
2018-11-28T07:10:12.800Z,13.70
2018-11-28T07:12:41.017Z,11.80
2018-11-28T07:15:11.301Z,11.90
2018-11-28T07:17:40.200Z,12.20
2018-11-28T07:20:09.790Z,14.83
2018-11-28T07:22:38.021Z,13.07
2018-11-28T07:25:08.916Z,11.93
2018-11-28T07:27:37.124Z,14.13
2018-11-28T07:30:15.316Z,12.13
2018-11-28T07:32:43.576Z,13.47
2018-11-28T07:35:12.267Z,12.50
2018-11-28T07:37:40.472Z,13.20
2018-11-28T07:40:13.009Z,14.40
2018-11-28T07:42:42.408Z,13.80
2018-11-28T07:45:11.641Z,12.50
2018-11-28T07:47:39.847Z,13.67
2018-11-28T07:50:09.312Z,13.40
2018-11-28T07:52:38.552Z,12.13
2018-11-28T07:55:10.141Z,12.70
2018-11-28T07:57:38.626Z,12.90
2018-11-28T08:00:10.208Z,12.90
2018-11-28T08:02:38.419Z,11.97
2018-11-28T08:05:07.594Z,14.00
2018-11-28T08:07:35.797Z,13.17
2018-11-28T08:10:04.068Z,14.27
2018-11-28T08:12:32.265Z,13.93
2018-11-28T08:15:00.470Z,13.43
2018-11-28T08:17:29.973Z,12.70
2018-11-28T08:19:56.879Z,13.83
2018-11-28T08:22:25.076Z,13.70
2018-11-28T08:24:53.285Z,12.00
2018-11-28T08:27:21.482Z,11.87
2018-11-28T08:29:49.704Z,11.33
2018-11-28T08:32:17.906Z,12.23
2018-11-28T08:34:46.104Z,11.30
2018-11-28T08:37:14.304Z,10.70
2018-11-28T08:39:42.517Z,10.60
2018-11-28T08:42:10.708Z,12.03
2018-11-28T08:44:38.930Z,11.63
2018-11-28T08:47:07.116Z,11.17
2018-11-28T08:49:35.321Z,11.53
2018-11-28T08:52:03.519Z,11.37
2018-11-28T08:54:31.724Z,9.57
2018-11-28T08:56:59.930Z,10.63
2018-11-28T08:59:28.147Z,12.53
2018-11-28T09:01:56.340Z,10.97
2018-11-28T09:04:24.552Z,11.67
2018-11-28T09:06:52.749Z,11.30
2018-11-28T09:09:20.951Z,12.30
2018-11-28T09:11:49.148Z,12.30
2018-11-28T09:14:17.363Z,12.73
2018-11-28T09:16:45.632Z,11.13
2018-11-28T09:19:13.859Z,11.83
2018-11-28T09:21:42.052Z,11.27
2018-11-28T09:24:10.263Z,12.43
2018-11-28T09:26:38.468Z,12.30
2018-11-28T09:29:06.681Z,12.90
2018-11-28T09:31:34.887Z,11.73
2018-11-28T09:34:03.092Z,12.63
2018-11-28T09:36:31.308Z,11.70
2018-11-28T09:38:59.520Z,11.23
2018-11-28T09:41:27.745Z,12.20
2018-11-28T09:43:55.944Z,10.60
2018-11-28T09:46:24.148Z,11.50
2018-11-28T09:48:52.383Z,12.63
2018-11-28T09:51:20.600Z,12.17
2018-11-28T09:53:48.808Z,12.93
2018-11-28T09:56:17.017Z,12.07
2018-11-28T09:58:45.211Z,10.83
2018-11-28T10:01:13.417Z,12.67
2018-11-28T10:03:41.617Z,12.40
2018-11-28T10:06:09.828Z,10.23
2018-11-28T10:08:38.021Z,10.57
2018-11-28T10:11:06.372Z,10.33
2018-11-28T10:13:34.574Z,11.03
2018-11-28T10:16:02.777Z,10.47
2018-11-28T10:18:30.972Z,11.43
2018-11-28T10:20:59.193Z,11.87
2018-11-28T10:23:27.374Z,12.40
2018-11-28T10:25:55.578Z,14.80
2018-11-28T10:28:23.775Z,14.00
2018-11-28T10:30:51.984Z,14.67
2018-11-28T10:33:20.200Z,14.30
2018-11-28T10:35:48.407Z,14.70
2018-11-28T10:38:16.625Z,15.30
2018-11-28T10:40:45.012Z,14.10
2018-11-28T10:43:13.207Z,15.40
2018-11-28T10:45:41.594Z,14.30
2018-11-28T10:48:11.555Z,14.13
2018-11-28T10:50:40.001Z,14.13
2018-11-28T10:53:08.198Z,16.00
2018-11-28T10:55:36.399Z,14.60
2018-11-28T10:58:06.098Z,15.50
2018-11-28T11:00:40.713Z,15.00
2018-11-28T11:03:14.604Z,14.00
2018-11-28T11:05:48.214Z,15.17
2018-11-28T11:08:21.648Z,14.57
2018-11-28T11:11:00.515Z,15.10
2018-11-28T11:13:34.844Z,14.77
2018-11-28T11:16:03.073Z,13.60
2018-11-28T11:18:31.297Z,16.80
2018-11-28T11:20:59.520Z,14.20
2018-11-28T11:23:27.723Z,16.67
2018-11-28T11:25:56.012Z,24.47
2018-11-28T11:28:24.183Z,20.63
2018-11-28T11:30:52.419Z,17.80
2018-11-28T11:33:20.654Z,17.63
2018-11-28T11:35:48.873Z,17.27
2018-11-28T11:38:17.068Z,16.10
2018-11-28T11:40:45.281Z,17.93
2018-11-28T11:43:13.487Z,16.20
2018-11-28T11:45:41.694Z,16.30
2018-11-28T11:48:09.926Z,16.40
2018-11-28T11:50:38.673Z,18.80
2018-11-28T11:53:06.891Z,16.57
2018-11-28T11:55:36.299Z,17.07
2018-11-28T11:58:04.516Z,17.57
2018-11-28T12:00:32.717Z,18.30
2018-11-28T12:03:09.326Z,15.87
2018-11-28T12:05:37.800Z,17.80
2018-11-28T12:08:06.706Z,18.20
2018-11-28T12:10:34.904Z,17.40
2018-11-28T12:13:03.150Z,17.20
2018-11-28T12:15:31.364Z,16.27
2018-11-28T12:17:59.572Z,16.53
2018-11-28T12:20:35.453Z,17.33
2018-11-28T12:23:03.671Z,17.20
2018-11-28T12:25:31.939Z,22.37
2018-11-28T12:28:00.148Z,20.53
2018-11-28T12:30:28.367Z,19.47
2018-11-28T12:32:57.413Z,18.87
2018-11-28T12:35:25.612Z,19.13
2018-11-28T12:37:53.825Z,17.93
2018-11-28T12:40:22.025Z,20.03
2018-11-28T12:42:52.297Z,19.17
2018-11-28T12:45:21.176Z,18.47
2018-11-28T12:47:49.712Z,18.93
2018-11-28T12:50:23.807Z,19.47
2018-11-28T12:52:52.783Z,19.30
2018-11-28T12:55:21.603Z,19.13
2018-11-28T12:57:51.708Z,17.77
2018-11-28T13:00:21.901Z,19.43
2018-11-28T13:02:50.123Z,20.53
2018-11-28T13:05:19.372Z,17.87
2018-11-28T13:07:47.656Z,20.27
2018-11-28T13:10:19.007Z,18.07
2018-11-28T13:12:48.100Z,18.70
2018-11-28T13:15:18.217Z,18.57
2018-11-28T13:17:46.431Z,19.83
2018-11-28T13:20:15.594Z,18.20
2018-11-28T13:22:44.176Z,18.50
2018-11-28T13:25:14.220Z,19.13
2018-11-28T13:27:42.678Z,19.80
2018-11-28T13:30:26.539Z,19.50
2018-11-28T13:32:55.332Z,19.47
2018-11-28T13:35:25.372Z,18.97
2018-11-28T13:37:54.725Z,18.90
2018-11-28T13:40:22.949Z,19.33
2018-11-28T13:42:51.609Z,19.00
2018-11-28T13:45:22.949Z,20.07
2018-11-28T13:47:52.015Z,18.00
2018-11-28T13:50:20.195Z,17.43
2018-11-28T13:52:48.781Z,18.07
2018-11-28T13:57:48.915Z,16.73
2018-11-28T14:00:20.501Z,17.13
2018-11-28T14:02:49.237Z,17.70
2018-11-28T14:05:17.608Z,17.77
2018-11-28T14:07:45.857Z,17.73
2018-11-28T14:10:14.821Z,17.40
2018-11-28T14:12:43.023Z,17.50
2018-11-28T14:15:19.066Z,16.77
2018-11-28T14:17:55.287Z,16.33
2018-11-28T14:20:23.462Z,16.00
2018-11-28T14:22:51.668Z,16.40
2018-11-28T14:25:19.874Z,15.37
2018-11-28T14:27:48.069Z,14.73
2018-11-28T14:30:20.345Z,15.37
2018-11-28T14:32:48.772Z,16.27
2018-11-28T14:35:17.100Z,17.63
2018-11-28T14:37:45.456Z,17.80
2018-11-28T14:40:14.785Z,15.90
2018-11-28T14:42:43.348Z,16.20
2018-11-28T14:45:14.512Z,17.77
2018-11-28T14:47:42.862Z,18.83
2018-11-28T14:50:13.357Z,17.80
2018-11-28T14:52:41.636Z,17.87
2018-11-28T14:55:13.260Z,17.53
2018-11-28T14:57:41.509Z,19.27
2018-11-28T15:00:12.247Z,19.57
2018-11-28T15:02:40.457Z,18.97
2018-11-28T15:05:13.819Z,19.83
2018-11-28T15:07:42.018Z,17.53
2018-11-28T15:10:11.426Z,17.83
2018-11-28T15:12:39.631Z,18.50
2018-11-28T15:15:08.346Z,18.47
2018-11-28T15:17:36.566Z,19.43
2018-11-28T15:20:06.671Z,18.50
2018-11-28T15:22:34.872Z,18.40
2018-11-28T15:25:04.245Z,17.93
2018-11-28T15:27:32.448Z,19.30
2018-11-28T15:30:00.668Z,18.73
2018-11-28T15:32:28.856Z,19.53
2018-11-28T15:34:58.011Z,19.57
2018-11-28T15:37:25.260Z,19.50
2018-11-28T15:39:55.886Z,19.53
2018-11-28T15:42:21.666Z,19.30
2018-11-28T15:44:49.865Z,19.40
2018-11-28T15:47:18.169Z,18.90
2018-11-28T15:49:46.360Z,20.23
2018-11-28T15:52:14.572Z,27.20
2018-11-28T15:54:42.781Z,25.90
2018-11-28T15:57:10.976Z,28.90
2018-11-28T15:59:39.195Z,27.67
2018-11-28T16:02:07.406Z,22.60
2018-11-28T16:04:35.620Z,21.87
2018-11-28T16:07:03.835Z,21.33
2018-11-28T16:09:37.432Z,19.70
2018-11-28T16:12:05.603Z,19.97
2018-11-28T16:14:33.804Z,22.17
2018-11-28T16:17:02.028Z,20.47
2018-11-28T16:19:30.225Z,20.47
2018-11-28T16:21:58.432Z,19.90
2018-11-28T16:24:26.671Z,20.53
2018-11-28T16:26:54.919Z,21.00
2018-11-28T16:29:23.136Z,20.50
2018-11-28T16:31:51.536Z,20.70
2018-11-28T16:34:20.701Z,19.50
2018-11-28T16:36:48.893Z,21.43
2018-11-28T16:39:17.193Z,21.33
2018-11-28T16:41:45.383Z,22.07
2018-11-28T16:44:13.588Z,22.00
2018-11-28T16:46:41.775Z,19.97
2018-11-28T16:49:10.006Z,20.10
2018-11-28T16:51:38.343Z,21.47
2018-11-28T16:54:06.538Z,20.83
2018-11-28T16:56:34.735Z,23.67
2018-11-28T16:59:02.924Z,22.77
2018-11-28T17:01:37.746Z,20.47
2018-11-28T17:04:06.111Z,21.30
2018-11-28T17:06:34.448Z,18.33
2018-11-28T17:09:02.681Z,17.13
2018-11-28T17:11:30.930Z,17.73
2018-11-28T17:13:59.128Z,16.70
2018-11-28T17:16:27.334Z,17.63
2018-11-28T17:18:55.523Z,14.30
2018-11-28T17:21:23.733Z,13.97
2018-11-28T17:23:51.924Z,12.20
2018-11-28T17:26:20.390Z,11.40
2018-11-28T17:28:48.579Z,12.97
2018-11-28T17:31:16.811Z,10.37
2018-11-28T17:33:45.022Z,10.83
2018-11-28T17:36:13.258Z,11.40
2018-11-28T17:38:41.465Z,12.53
2018-11-28T17:41:09.677Z,13.50
2018-11-28T17:43:39.330Z,13.20
2018-11-28T17:46:08.807Z,12.83
2018-11-28T17:48:37.212Z,12.43
2018-11-28T17:51:05.683Z,11.40
2018-11-28T17:53:33.958Z,10.30
2018-11-28T17:56:02.163Z,11.63
2018-11-28T17:58:30.379Z,11.70
2018-11-28T18:00:58.583Z,11.83
2018-11-28T18:03:26.768Z,14.10
2018-11-28T18:05:55.041Z,13.37
2018-11-28T18:08:23.219Z,16.60
2018-11-28T18:10:51.466Z,16.97
2018-11-28T18:13:19.764Z,17.00
2018-11-28T18:15:52.249Z,17.10
2018-11-28T18:18:21.727Z,16.33
2018-11-28T18:20:50.480Z,16.47
2018-11-28T18:23:18.200Z,16.90
2018-11-28T18:25:46.755Z,16.53
2018-11-28T18:28:15.004Z,18.03
2018-11-28T18:30:43.268Z,15.90
2018-11-28T18:33:12.401Z,17.87
2018-11-28T18:35:40.627Z,15.50
2018-11-28T18:38:08.908Z,16.30
2018-11-28T18:40:47.306Z,14.73
2018-11-28T18:43:20.791Z,14.03
2018-11-28T18:45:51.931Z,13.87
2018-11-28T18:48:20.125Z,15.30
2018-11-28T18:50:48.351Z,12.97
2018-11-28T18:53:16.540Z,12.80
2018-11-28T18:55:44.746Z,11.47
2018-11-28T18:58:13.496Z,12.43
2018-11-28T19:00:41.767Z,12.50
2018-11-28T19:03:09.973Z,13.43
2018-11-28T19:05:38.176Z,14.00
2018-11-28T19:08:07.446Z,16.00
2018-11-28T19:10:35.648Z,14.20
2018-11-28T19:13:03.843Z,15.80
2018-11-28T19:15:32.028Z,14.43
2018-11-28T19:18:00.224Z,14.30
2018-11-28T19:20:28.499Z,14.40
2018-11-28T19:22:57.212Z,14.30
2018-11-28T19:25:28.945Z,14.57
2018-11-28T19:27:57.149Z,15.07
2018-11-28T19:30:35.473Z,16.83
2018-11-28T19:33:03.690Z,15.67
2018-11-28T19:35:31.921Z,14.90
2018-11-28T19:38:00.259Z,16.47
2018-11-28T19:40:39.712Z,14.50
2018-11-28T19:43:07.913Z,14.20
2018-11-28T19:45:36.111Z,10.97
2018-11-28T19:48:04.296Z,7.90
2018-11-28T19:50:33.825Z,7.77
2018-11-28T19:53:02.033Z,7.50
2018-11-28T19:55:30.236Z,10.00
2018-11-28T19:57:58.441Z,10.07
2018-11-28T20:00:26.636Z,9.30
2018-11-28T20:02:54.855Z,8.77
2018-11-28T20:05:23.096Z,10.40
2018-11-28T20:07:51.360Z,12.23
2018-11-28T20:10:20.652Z,12.43
2018-11-28T20:12:49.515Z,13.90
2018-11-28T20:15:21.500Z,11.70
2018-11-28T20:17:50.398Z,10.53
2018-11-28T20:20:19.292Z,11.10
2018-11-28T20:22:48.636Z,9.57
2018-11-28T20:25:18.178Z,10.57
2018-11-28T20:27:50.096Z,11.40
2018-11-28T20:30:20.521Z,10.47
2018-11-28T20:32:48.869Z,10.17
2018-11-28T20:35:17.516Z,10.70
2018-11-28T20:37:46.684Z,11.00
2018-11-28T20:40:16.263Z,10.60
2018-11-28T20:42:52.978Z,12.90
2018-11-28T20:45:21.574Z,12.40
2018-11-28T20:47:50.189Z,12.37
2018-11-28T20:50:24.352Z,12.00
2018-11-28T20:52:55.622Z,11.93
2018-11-28T20:55:24.490Z,12.60
2018-11-28T20:57:56.778Z,11.47
2018-11-28T21:00:25.563Z,12.17
2018-11-28T21:02:54.099Z,11.70
2018-11-28T21:05:22.961Z,11.50
2018-11-28T21:07:52.198Z,12.17
2018-11-28T21:10:25.970Z,11.90
2018-11-28T21:15:41.887Z,10.90
2018-11-28T21:18:10.376Z,11.37
2018-11-28T21:20:39.862Z,11.03
2018-11-28T21:23:10.617Z,11.20
2018-11-28T21:25:39.128Z,12.20
2018-11-28T21:28:07.750Z,14.63
2018-11-28T21:30:41.384Z,12.80
2018-11-28T21:33:10.755Z,15.83
2018-11-28T21:35:40.841Z,14.20
2018-11-28T21:38:09.859Z,16.20
2018-11-28T21:40:38.327Z,15.80
2018-11-28T21:43:07.154Z,17.50
2018-11-28T21:45:35.849Z,16.57
2018-11-28T21:48:04.831Z,16.03
2018-11-28T21:50:33.318Z,15.50
2018-11-28T21:53:02.281Z,15.70
2018-11-28T21:55:31.039Z,17.20
2018-11-28T21:57:59.586Z,17.60
2018-11-28T22:00:28.304Z,15.70
2018-11-28T22:02:57.231Z,15.37
2018-11-28T22:05:25.818Z,16.07
2018-11-28T22:07:54.111Z,17.63
2018-11-28T22:10:23.423Z,16.13
2018-11-28T22:12:51.821Z,15.57
2018-11-28T22:15:20.055Z,12.80
2018-11-28T22:17:51.467Z,11.83
2018-11-28T22:20:19.738Z,13.30
2018-11-28T22:22:47.983Z,13.00
2018-11-28T22:25:18.211Z,12.90
2018-11-28T22:27:46.443Z,12.37
2018-11-28T22:30:15.890Z,12.77
2018-11-28T22:32:44.168Z,9.07
2018-11-28T22:35:12.411Z,8.87
2018-11-28T22:37:40.634Z,12.00
2018-11-28T22:40:14.115Z,10.70
2018-11-28T22:42:42.316Z,9.90
2018-11-28T22:45:13.019Z,10.80
2018-11-28T22:47:41.264Z,11.03
2018-11-28T22:50:10.733Z,10.27
2018-11-28T22:52:39.163Z,11.50
2018-11-28T22:55:12.088Z,11.03
2018-11-28T22:57:40.289Z,9.50
2018-11-28T23:00:16.615Z,9.87
2018-11-28T23:02:52.154Z,9.70
2018-11-28T23:05:21.272Z,9.70
2018-11-28T23:07:49.541Z,10.00
2018-11-28T23:10:17.968Z,10.37
2018-11-28T23:12:46.177Z,9.27
2018-11-28T23:15:14.391Z,9.10
2018-11-28T23:17:42.616Z,8.60
2018-11-28T23:20:10.886Z,8.13
2018-11-28T23:22:39.096Z,9.40
2018-11-28T23:25:09.411Z,9.77
2018-11-28T23:27:37.601Z,9.13
2018-11-28T23:30:09.190Z,10.30
2018-11-28T23:32:37.401Z,8.83
2018-11-28T23:35:07.136Z,8.60
2018-11-28T23:37:35.340Z,7.60
2018-11-28T23:40:04.711Z,8.60
2018-11-28T23:42:32.924Z,8.27
2018-11-28T23:45:01.138Z,8.87
2018-11-28T23:47:29.343Z,7.90
2018-11-28T23:49:57.564Z,8.60
2018-11-28T23:52:25.752Z,8.20
2018-11-28T23:54:54.078Z,8.20
2018-11-28T23:57:22.285Z,8.80
2018-11-28T23:59:50.500Z,8.20
